sensor_id;sensor_type;location;lat;lon;timestamp;pressure;altitude;pressure_sealevel;temperature;humidity
11212;BME280;5663;50.864;12.096;2022-12-07T00:01:12;99262.78;;;4.85;77.58
11212;BME280;5663;50.864;12.096;2022-12-07T00:03:42;99266.25;;;4.84;77.72
11212;BME280;5663;50.864;12.096;2022-12-07T00:06:11;99159.13;;;4.19;77.65
11212;BME280;5663;50.864;12.096;2022-12-07T00:08:40;99251.78;;;4.79;77.59
11212;BME280;5663;50.864;12.096;2022-12-07T00:11:10;99132.75;;;4.11;77.69
11212;BME280;5663;50.864;12.096;2022-12-07T00:13:39;99243.34;;;4.75;77.44
11212;BME280;5663;50.864;12.096;2022-12-07T00:16:09;99232.31;;;4.70;77.43
11212;BME280;5663;50.864;12.096;2022-12-07T00:18:39;99216.56;;;4.51;77.21
11212;BME280;5663;50.864;12.096;2022-12-07T00:21:09;99233.56;;;4.57;76.94
11212;BME280;5663;50.864;12.096;2022-12-07T00:23:38;99227.72;;;4.52;77.35
11212;BME280;5663;50.864;12.096;2022-12-07T00:26:10;99226.19;;;4.44;76.72
11212;BME280;5663;50.864;12.096;2022-12-07T00:28:38;99226.25;;;4.41;76.92
11212;BME280;5663;50.864;12.096;2022-12-07T00:31:07;99215.34;;;4.33;76.96
11212;BME280;5663;50.864;12.096;2022-12-07T00:33:36;99219.72;;;4.31;76.68
11212;BME280;5663;50.864;12.096;2022-12-07T00:36:12;99216.44;;;4.25;77.25
11212;BME280;5663;50.864;12.096;2022-12-07T00:38:40;99209.75;;;4.19;77.36
11212;BME280;5663;50.864;12.096;2022-12-07T00:41:10;99212.47;;;4.13;77.28
11212;BME280;5663;50.864;12.096;2022-12-07T00:43:38;99205.72;;;4.09;77.39
11212;BME280;5663;50.864;12.096;2022-12-07T00:46:06;99182.28;;;3.88;76.90
11212;BME280;5663;50.864;12.096;2022-12-07T00:48:34;99211.84;;;4.05;76.87
11212;BME280;5663;50.864;12.096;2022-12-07T00:51:02;99204.19;;;4.02;77.17
11212;BME280;5663;50.864;12.096;2022-12-07T00:53:33;99201.69;;;3.99;77.45
11212;BME280;5663;50.864;12.096;2022-12-07T00:56:05;99206.97;;;3.95;77.19
11212;BME280;5663;50.864;12.096;2022-12-07T00:58:33;99195.91;;;3.92;77.16
11212;BME280;5663;50.864;12.096;2022-12-07T01:01:01;99201.97;;;3.89;76.82
11212;BME280;5663;50.864;12.096;2022-12-07T01:03:29;99203.75;;;3.87;77.07
11212;BME280;5663;50.864;12.096;2022-12-07T01:05:57;99196.09;;;3.84;76.44
11212;BME280;5663;50.864;12.096;2022-12-07T01:08:42;99200.47;;;3.81;76.95
11212;BME280;5663;50.864;12.096;2022-12-07T01:11:13;99182.56;;;3.78;76.74
11212;BME280;5663;50.864;12.096;2022-12-07T01:13:45;99180.19;;;3.70;76.41
11212;BME280;5663;50.864;12.096;2022-12-07T01:16:14;99185.31;;;3.70;76.81
11212;BME280;5663;50.864;12.096;2022-12-07T01:18:45;99179.41;;;3.66;76.48
11212;BME280;5663;50.864;12.096;2022-12-07T01:21:15;99176.97;;;3.62;76.85
11212;BME280;5663;50.864;12.096;2022-12-07T01:23:44;99163.84;;;3.38;76.47
11212;BME280;5663;50.864;12.096;2022-12-07T01:26:14;99189.16;;;3.55;76.78
11212;BME280;5663;50.864;12.096;2022-12-07T01:28:42;99182.34;;;3.53;76.50
11212;BME280;5663;50.864;12.096;2022-12-07T01:31:13;99180.75;;;3.49;76.46
11212;BME280;5663;50.864;12.096;2022-12-07T01:33:43;99160.56;;;3.33;76.50
11212;BME280;5663;50.864;12.096;2022-12-07T01:36:14;99177.53;;;3.39;76.50
11212;BME280;5663;50.864;12.096;2022-12-07T01:38:44;99170.84;;;3.33;76.52
11212;BME280;5663;50.864;12.096;2022-12-07T01:41:13;99176.16;;;3.27;76.06
11212;BME280;5663;50.864;12.096;2022-12-07T01:44:12;99184.03;;;3.19;75.94
11212;BME280;5663;50.864;12.096;2022-12-07T01:46:43;99182.41;;;3.15;76.44
11212;BME280;5663;50.864;12.096;2022-12-07T01:49:17;99192.00;;;3.09;75.77
11212;BME280;5663;50.864;12.096;2022-12-07T01:51:49;99192.13;;;3.03;76.02
11212;BME280;5663;50.864;12.096;2022-12-07T01:54:20;99202.53;;;2.96;76.39
11212;BME280;5663;50.864;12.096;2022-12-07T01:56:52;99196.69;;;2.90;75.54
11212;BME280;5663;50.864;12.096;2022-12-07T01:59:24;99195.84;;;2.89;75.58
11212;BME280;5663;50.864;12.096;2022-12-07T02:01:53;99190.00;;;2.84;76.06
11212;BME280;5663;50.864;12.096;2022-12-07T02:04:22;99194.41;;;2.78;75.57
11212;BME280;5663;50.864;12.096;2022-12-07T02:06:50;99181.69;;;2.73;76.02
11212;BME280;5663;50.864;12.096;2022-12-07T02:09:20;99180.94;;;2.68;75.94
11212;BME280;5663;50.864;12.096;2022-12-07T02:11:48;99172.47;;;2.63;75.64
11212;BME280;5663;50.864;12.096;2022-12-07T02:14:17;99168.28;;;2.59;75.79
11212;BME280;5663;50.864;12.096;2022-12-07T02:16:54;99156.50;;;2.50;76.13
11212;BME280;5663;50.864;12.096;2022-12-07T02:19:58;99156.50;;;2.50;75.77
11212;BME280;5663;50.864;12.096;2022-12-07T02:22:44;99157.44;;;2.47;75.99
11212;BME280;5663;50.864;12.096;2022-12-07T02:25:25;99158.38;;;2.42;75.50
11212;BME280;5663;50.864;12.096;2022-12-07T02:28:03;99146.50;;;2.38;75.86
11212;BME280;5663;50.864;12.096;2022-12-07T02:30:35;99154.25;;;2.36;75.87
11212;BME280;5663;50.864;12.096;2022-12-07T02:33:12;99149.97;;;2.35;76.20
11212;BME280;5663;50.864;12.096;2022-12-07T02:35:43;99145.72;;;2.34;76.52
11212;BME280;5663;50.864;12.096;2022-12-07T02:38:14;99149.13;;;2.36;76.40
11212;BME280;5663;50.864;12.096;2022-12-07T02:40:48;99141.47;;;2.33;76.36
11212;BME280;5663;50.864;12.096;2022-12-07T02:43:20;99138.00;;;2.36;76.34
11212;BME280;5663;50.864;12.096;2022-12-07T02:45:55;99122.72;;;2.30;76.29
11212;BME280;5663;50.864;12.096;2022-12-07T02:48:24;99140.59;;;2.34;76.14
11212;BME280;5663;50.864;12.096;2022-12-07T02:50:54;99138.06;;;2.33;76.11
11212;BME280;5663;50.864;12.096;2022-12-07T02:53:29;99133.84;;;2.30;76.36
11212;BME280;5663;50.864;12.096;2022-12-07T02:55:58;99130.47;;;2.28;76.47
11212;BME280;5663;50.864;12.096;2022-12-07T02:58:35;99133.88;;;2.27;76.24
11212;BME280;5663;50.864;12.096;2022-12-07T03:01:14;99130.53;;;2.25;76.23
11212;BME280;5663;50.864;12.096;2022-12-07T03:03:48;99127.06;;;2.26;76.31
11212;BME280;5663;50.864;12.096;2022-12-07T03:06:25;99114.41;;;2.18;76.30
11212;BME280;5663;50.864;12.096;2022-12-07T03:09:02;99125.41;;;2.25;76.47
11212;BME280;5663;50.864;12.096;2022-12-07T03:11:42;99082.59;;;1.87;76.42
11212;BME280;5663;50.864;12.096;2022-12-07T03:14:15;99135.63;;;2.27;76.72
11212;BME280;5663;50.864;12.096;2022-12-07T03:16:50;99125.34;;;2.28;76.36
11212;BME280;5663;50.864;12.096;2022-12-07T03:19:21;99128.75;;;2.29;76.58
11212;BME280;5663;50.864;12.096;2022-12-07T03:21:53;99116.75;;;2.29;76.79
11212;BME280;5663;50.864;12.096;2022-12-07T03:24:26;99117.66;;;2.28;76.71
11212;BME280;5663;50.864;12.096;2022-12-07T03:26:57;99078.72;;;2.09;76.74
11212;BME280;5663;50.864;12.096;2022-12-07T03:29:33;99106.56;;;2.26;76.41
11212;BME280;5663;50.864;12.096;2022-12-07T03:32:08;99104.94;;;2.22;76.68
11212;BME280;5663;50.864;12.096;2022-12-07T03:34:45;99100.75;;;2.18;76.80
11212;BME280;5663;50.864;12.096;2022-12-07T03:37:17;99102.47;;;2.17;76.61
11212;BME280;5663;50.864;12.096;2022-12-07T03:39:53;99104.19;;;2.17;76.76
11212;BME280;5663;50.864;12.096;2022-12-07T03:42:24;99107.66;;;2.14;76.97
11212;BME280;5663;50.864;12.096;2022-12-07T03:44:54;99101.69;;;2.14;77.03
11212;BME280;5663;50.864;12.096;2022-12-07T03:47:26;99099.97;;;2.14;76.54
11212;BME280;5663;50.864;12.096;2022-12-07T03:49:59;99098.25;;;2.15;76.79
11212;BME280;5663;50.864;12.096;2022-12-07T03:52:33;99087.09;;;2.17;76.86
11212;BME280;5663;50.864;12.096;2022-12-07T03:55:09;99090.44;;;2.21;76.89
11212;BME280;5663;50.864;12.096;2022-12-07T03:57:39;99093.78;;;2.23;77.01
11212;BME280;5663;50.864;12.096;2022-12-07T04:00:10;99086.03;;;2.26;77.20
11212;BME280;5663;50.864;12.096;2022-12-07T04:02:41;99087.66;;;2.30;77.56
11212;BME280;5663;50.864;12.096;2022-12-07T04:05:09;99080.78;;;2.32;77.38
11212;BME280;5663;50.864;12.096;2022-12-07T04:07:36;99084.13;;;2.34;77.41
11212;BME280;5663;50.864;12.096;2022-12-07T04:10:05;99080.63;;;2.38;77.50
11212;BME280;5663;50.864;12.096;2022-12-07T04:12:33;99075.44;;;2.41;77.30
11212;BME280;5663;50.864;12.096;2022-12-07T04:15:00;99083.06;;;2.44;77.26
11212;BME280;5663;50.864;12.096;2022-12-07T04:17:28;99085.56;;;2.47;77.30
11212;BME280;5663;50.864;12.096;2022-12-07T04:19:57;99078.66;;;2.50;77.33
11212;BME280;5663;50.864;12.096;2022-12-07T04:22:25;99082.91;;;2.52;77.58
11212;BME280;5663;50.864;12.096;2022-12-07T04:24:53;99082.81;;;2.55;77.79
11212;BME280;5663;50.864;12.096;2022-12-07T04:27:20;99079.28;;;2.59;77.89
11212;BME280;5663;50.864;12.096;2022-12-07T04:29:48;99081.78;;;2.64;78.10
11212;BME280;5663;50.864;12.096;2022-12-07T04:32:15;99081.66;;;2.68;78.09
11212;BME280;5663;50.864;12.096;2022-12-07T04:34:43;99079.75;;;2.75;77.85
11212;BME280;5663;50.864;12.096;2022-12-07T04:37:12;99081.38;;;2.79;78.37
11212;BME280;5663;50.864;12.096;2022-12-07T04:39:41;99078.75;;;2.82;78.34
11212;BME280;5663;50.864;12.096;2022-12-07T04:42:11;99065.78;;;2.87;78.22
11212;BME280;5663;50.864;12.096;2022-12-07T04:44:39;99062.38;;;2.86;77.85
11212;BME280;5663;50.864;12.096;2022-12-07T04:47:07;99072.44;;;2.95;77.94
11212;BME280;5663;50.864;12.096;2022-12-07T04:49:35;99046.84;;;2.92;78.26
11212;BME280;5663;50.864;12.096;2022-12-07T04:52:02;99054.25;;;3.03;78.21
11212;BME280;5663;50.864;12.096;2022-12-07T04:54:32;99049.09;;;3.05;77.92
11212;BME280;5663;50.864;12.096;2022-12-07T04:57:02;99036.50;;;2.95;78.09
11212;BME280;5663;50.864;12.096;2022-12-07T04:59:30;99044.59;;;3.13;78.60
11212;BME280;5663;50.864;12.096;2022-12-07T05:01:57;99047.13;;;3.14;78.18
11212;BME280;5663;50.864;12.096;2022-12-07T05:04:25;99049.59;;;3.17;78.17
11212;BME280;5663;50.864;12.096;2022-12-07T05:06:53;99036.06;;;3.11;78.23
11212;BME280;5663;50.864;12.096;2022-12-07T05:09:21;99051.22;;;3.21;78.26
11212;BME280;5663;50.864;12.096;2022-12-07T05:11:49;99052.88;;;3.24;78.64
11212;BME280;5663;50.864;12.096;2022-12-07T05:14:19;99051.97;;;3.25;78.26
11212;BME280;5663;50.864;12.096;2022-12-07T05:16:49;99051.16;;;3.23;78.37
11212;BME280;5663;50.864;12.096;2022-12-07T05:19:18;99053.66;;;3.26;78.73
11212;BME280;5663;50.864;12.096;2022-12-07T05:21:46;99041.75;;;3.24;78.21
11212;BME280;5663;50.864;12.096;2022-12-07T05:24:16;99051.03;;;3.29;78.90
11212;BME280;5663;50.864;12.096;2022-12-07T05:26:44;99034.13;;;3.19;78.39
11212;BME280;5663;50.864;12.096;2022-12-07T05:29:15;99050.94;;;3.32;78.95
11212;BME280;5663;50.864;12.096;2022-12-07T05:31:44;99005.34;;;3.08;78.50
11212;BME280;5663;50.864;12.096;2022-12-07T05:34:12;99044.78;;;3.38;78.31
11212;BME280;5663;50.864;12.096;2022-12-07T05:36:40;99037.06;;;3.39;79.05
11212;BME280;5663;50.864;12.096;2022-12-07T05:39:08;99026.16;;;3.30;78.90
11212;BME280;5663;50.864;12.096;2022-12-07T05:41:38;99048.94;;;3.43;79.11
11212;BME280;5663;50.864;12.096;2022-12-07T05:44:25;99045.53;;;3.41;78.85
11212;BME280;5663;50.864;12.096;2022-12-07T05:46:53;99039.50;;;3.44;79.14
11212;BME280;5663;50.864;12.096;2022-12-07T05:49:20;99037.69;;;3.48;78.72
11212;BME280;5663;50.864;12.096;2022-12-07T05:51:48;99040.25;;;3.48;78.53
11212;BME280;5663;50.864;12.096;2022-12-07T05:54:15;99042.72;;;3.51;78.83
11212;BME280;5663;50.864;12.096;2022-12-07T05:56:43;99048.66;;;3.53;78.78
11212;BME280;5663;50.864;12.096;2022-12-07T05:59:11;99046.03;;;3.54;78.64
11212;BME280;5663;50.864;12.096;2022-12-07T06:01:57;99049.47;;;3.55;79.21
11212;BME280;5663;50.864;12.096;2022-12-07T06:04:26;99041.75;;;3.55;78.71
11212;BME280;5663;50.864;12.096;2022-12-07T06:06:54;99050.28;;;3.57;79.34
11212;BME280;5663;50.864;12.096;2022-12-07T06:09:24;99025.88;;;3.40;79.07
11212;BME280;5663;50.864;12.096;2022-12-07T06:11:52;99044.25;;;3.58;79.01
11212;BME280;5663;50.864;12.096;2022-12-07T06:14:37;99042.50;;;3.58;79.18
11212;BME280;5663;50.864;12.096;2022-12-07T06:17:07;99041.66;;;3.58;79.68
11212;BME280;5663;50.864;12.096;2022-12-07T06:19:36;99045.84;;;3.62;78.99
11212;BME280;5663;50.864;12.096;2022-12-07T06:22:04;99043.25;;;3.63;79.68
11212;BME280;5663;50.864;12.096;2022-12-07T06:24:32;99039.78;;;3.64;79.34
11212;BME280;5663;50.864;12.096;2022-12-07T06:27:00;99034.78;;;3.60;78.92
11212;BME280;5663;50.864;12.096;2022-12-07T06:29:27;99043.88;;;3.70;79.24
11212;BME280;5663;50.864;12.096;2022-12-07T06:31:56;99042.16;;;3.70;79.03
11212;BME280;5663;50.864;12.096;2022-12-07T06:34:26;99046.38;;;3.73;78.94
11212;BME280;5663;50.864;12.096;2022-12-07T06:36:53;99048.91;;;3.75;79.33
11212;BME280;5663;50.864;12.096;2022-12-07T06:39:24;99049.78;;;3.75;79.67
11212;BME280;5663;50.864;12.096;2022-12-07T06:41:51;99045.41;;;3.77;79.42
11212;BME280;5663;50.864;12.096;2022-12-07T06:44:20;99052.22;;;3.78;79.33
11212;BME280;5663;50.864;12.096;2022-12-07T06:46:49;99048.75;;;3.81;79.77
11212;BME280;5663;50.864;12.096;2022-12-07T06:49:17;99041.91;;;3.80;79.63
11212;BME280;5663;50.864;12.096;2022-12-07T06:51:46;99051.25;;;3.82;79.72
11212;BME280;5663;50.864;12.096;2022-12-07T06:54:16;99054.66;;;3.83;79.54
11212;BME280;5663;50.864;12.096;2022-12-07T06:56:44;99058.94;;;3.84;79.51
11212;BME280;5663;50.864;12.096;2022-12-07T06:59:12;99058.00;;;3.86;79.87
11212;BME280;5663;50.864;12.096;2022-12-07T07:01:39;99067.31;;;3.90;79.53
11212;BME280;5663;50.864;12.096;2022-12-07T07:04:07;99076.63;;;3.94;79.28
11212;BME280;5663;50.864;12.096;2022-12-07T07:06:35;99054.66;;;3.83;79.61
11212;BME280;5663;50.864;12.096;2022-12-07T07:09:04;99074.88;;;3.97;79.82
11212;BME280;5663;50.864;12.096;2022-12-07T07:11:32;99051.00;;;3.91;79.13
11212;BME280;5663;50.864;12.096;2022-12-07T07:14:00;99074.78;;;4.00;79.12
11212;BME280;5663;50.864;12.096;2022-12-07T07:16:28;99033.44;;;3.76;79.34
11212;BME280;5663;50.864;12.096;2022-12-07T07:18:57;99075.53;;;4.03;79.84
11212;BME280;5663;50.864;12.096;2022-12-07T07:21:25;99056.22;;;3.88;79.18
11212;BME280;5663;50.864;12.096;2022-12-07T07:23:52;99074.66;;;4.03;79.15
11212;BME280;5663;50.864;12.096;2022-12-07T07:26:22;99083.13;;;4.08;79.40
11212;BME280;5663;50.864;12.096;2022-12-07T07:28:49;99085.56;;;4.11;79.57
11212;BME280;5663;50.864;12.096;2022-12-07T07:31:17;99090.63;;;4.14;79.28
11212;BME280;5663;50.864;12.096;2022-12-07T07:33:45;99098.34;;;4.14;79.36
11212;BME280;5663;50.864;12.096;2022-12-07T07:36:13;99094.03;;;4.16;79.76
11212;BME280;5663;50.864;12.096;2022-12-07T07:38:40;99083.69;;;4.17;79.88
11212;BME280;5663;50.864;12.096;2022-12-07T07:41:08;99091.38;;;4.19;79.90
11212;BME280;5663;50.864;12.096;2022-12-07T07:43:38;99093.06;;;4.20;79.33
11212;BME280;5663;50.864;12.096;2022-12-07T07:46:12;99086.22;;;4.19;79.29
11212;BME280;5663;50.864;12.096;2022-12-07T07:48:49;99058.31;;;4.05;79.56
11212;BME280;5663;50.864;12.096;2022-12-07T07:51:17;99070.13;;;4.11;79.25
11212;BME280;5663;50.864;12.096;2022-12-07T07:53:44;99054.97;;;4.03;79.11
11212;BME280;5663;50.864;12.096;2022-12-07T07:56:12;99082.84;;;4.17;79.13
11212;BME280;5663;50.864;12.096;2022-12-07T07:58:41;99077.78;;;4.14;79.46
11212;BME280;5663;50.864;12.096;2022-12-07T08:01:09;99080.25;;;4.17;79.42
11212;BME280;5663;50.864;12.096;2022-12-07T08:03:38;99080.22;;;4.18;79.22
11212;BME280;5663;50.864;12.096;2022-12-07T08:06:06;99081.91;;;4.19;79.74
11212;BME280;5663;50.864;12.096;2022-12-07T08:08:34;99088.69;;;4.22;79.65
11212;BME280;5663;50.864;12.096;2022-12-07T08:11:04;99095.44;;;4.26;79.58
11212;BME280;5663;50.864;12.096;2022-12-07T08:13:35;99096.16;;;4.31;79.18
11212;BME280;5663;50.864;12.096;2022-12-07T08:16:06;99092.59;;;4.35;79.60
11212;BME280;5663;50.864;12.096;2022-12-07T08:18:35;99062.16;;;4.20;79.27
11212;BME280;5663;50.864;12.096;2022-12-07T08:21:04;99092.41;;;4.41;79.20
11212;BME280;5663;50.864;12.096;2022-12-07T08:23:32;99087.16;;;4.44;79.56
11212;BME280;5663;50.864;12.096;2022-12-07T08:26:01;99090.50;;;4.47;79.78
11212;BME280;5663;50.864;12.096;2022-12-07T08:28:29;99088.75;;;4.49;79.29
11212;BME280;5663;50.864;12.096;2022-12-07T08:30:59;99086.94;;;4.51;79.38
11212;BME280;5663;50.864;12.096;2022-12-07T08:33:29;99083.41;;;4.55;79.66
11212;BME280;5663;50.864;12.096;2022-12-07T08:36:00;99082.38;;;4.60;79.86
11212;BME280;5663;50.864;12.096;2022-12-07T08:38:28;98966.91;;;3.93;79.77
11212;BME280;5663;50.864;12.096;2022-12-07T08:40:56;99082.81;;;4.73;79.80
11212;BME280;5663;50.864;12.096;2022-12-07T08:43:25;99091.25;;;4.78;79.69
11212;BME280;5663;50.864;12.096;2022-12-07T08:46:00;99081.75;;;4.80;79.47
11212;BME280;5663;50.864;12.096;2022-12-07T08:48:33;99083.34;;;4.84;79.79
11212;BME280;5663;50.864;12.096;2022-12-07T08:51:01;99085.81;;;4.87;79.83
11212;BME280;5663;50.864;12.096;2022-12-07T08:53:29;99089.16;;;4.89;79.48
11212;BME280;5663;50.864;12.096;2022-12-07T08:55:57;99082.28;;;4.90;79.53
11212;BME280;5663;50.864;12.096;2022-12-07T08:58:25;99080.44;;;4.93;79.90
11212;BME280;5663;50.864;12.096;2022-12-07T09:00:53;99043.34;;;4.73;79.83
11212;BME280;5663;50.864;12.096;2022-12-07T09:03:22;99077.59;;;5.03;79.66
11212;BME280;5663;50.864;12.096;2022-12-07T09:05:52;99069.72;;;5.06;79.83
11212;BME280;5663;50.864;12.096;2022-12-07T09:08:22;99069.53;;;5.12;79.88
11212;BME280;5663;50.864;12.096;2022-12-07T09:10:53;99071.91;;;5.18;79.68
11212;BME280;5663;50.864;12.096;2022-12-07T09:13:21;99076.06;;;5.22;79.66
11212;BME280;5663;50.864;12.096;2022-12-07T09:15:49;99065.13;;;5.15;79.32
11212;BME280;5663;50.864;12.096;2022-12-07T09:18:16;99075.03;;;5.28;79.59
11212;BME280;5663;50.864;12.096;2022-12-07T09:20:44;99080.91;;;5.31;79.40
11212;BME280;5663;50.864;12.096;2022-12-07T09:23:14;99079.00;;;5.36;79.63
11212;BME280;5663;50.864;12.096;2022-12-07T09:25:41;99084.91;;;5.40;79.27
11212;BME280;5663;50.864;12.096;2022-12-07T09:28:09;99083.06;;;5.43;79.41
11212;BME280;5663;50.864;12.096;2022-12-07T09:30:37;99085.56;;;5.47;79.44
11212;BME280;5663;50.864;12.096;2022-12-07T09:33:05;99081.00;;;5.53;79.51
11212;BME280;5663;50.864;12.096;2022-12-07T09:35:33;99085.22;;;5.56;79.44
11212;BME280;5663;50.864;12.096;2022-12-07T09:38:01;99073.09;;;5.58;79.11
11212;BME280;5663;50.864;12.096;2022-12-07T09:40:30;99079.00;;;5.61;79.35
11212;BME280;5663;50.864;12.096;2022-12-07T09:43:00;99075.41;;;5.65;79.29
11212;BME280;5663;50.864;12.096;2022-12-07T09:45:34;99082.22;;;5.68;79.33
11212;BME280;5663;50.864;12.096;2022-12-07T09:48:02;99084.78;;;5.68;79.37
11212;BME280;5663;50.864;12.096;2022-12-07T09:50:30;99072.00;;;5.65;79.53
11212;BME280;5663;50.864;12.096;2022-12-07T09:53:06;99070.03;;;5.72;79.16
11212;BME280;5663;50.864;12.096;2022-12-07T09:55:37;99062.25;;;5.73;79.03
11212;BME280;5663;50.864;12.096;2022-12-07T09:58:05;99061.19;;;5.79;79.02
11212;BME280;5663;50.864;12.096;2022-12-07T10:00:33;99060.22;;;5.81;79.05
11212;BME280;5663;50.864;12.096;2022-12-07T10:03:01;99054.38;;;5.76;79.09
11212;BME280;5663;50.864;12.096;2022-12-07T10:05:32;99062.63;;;5.86;78.92
11212;BME280;5663;50.864;12.096;2022-12-07T10:08:03;99047.38;;;5.80;78.65
11212;BME280;5663;50.864;12.096;2022-12-07T10:10:32;99059.78;;;5.93;78.69
11212;BME280;5663;50.864;12.096;2022-12-07T10:13:04;99049.38;;;5.97;78.61
11212;BME280;5663;50.864;12.096;2022-12-07T10:15:45;99053.59;;;5.99;78.61
11212;BME280;5663;50.864;12.096;2022-12-07T10:18:35;99024.91;;;5.83;78.34
11212;BME280;5663;50.864;12.096;2022-12-07T10:21:14;99052.75;;;5.99;78.66
11212;BME280;5663;50.864;12.096;2022-12-07T10:23:59;99027.34;;;5.86;78.41
11212;BME280;5663;50.864;12.096;2022-12-07T10:26:30;99036.91;;;6.08;78.23
11212;BME280;5663;50.864;12.096;2022-12-07T10:29:14;99050.47;;;6.13;77.95
11212;BME280;5663;50.864;12.096;2022-12-07T10:31:44;99053.84;;;6.15;78.26
11212;BME280;5663;50.864;12.096;2022-12-07T10:34:21;99052.09;;;6.15;78.12
11212;BME280;5663;50.864;12.096;2022-12-07T10:36:51;99039.91;;;6.19;77.93
11212;BME280;5663;50.864;12.096;2022-12-07T10:39:20;99040.59;;;6.24;77.99
11212;BME280;5663;50.864;12.096;2022-12-07T10:41:55;99036.97;;;6.28;77.97
11212;BME280;5663;50.864;12.096;2022-12-07T10:44:26;99041.84;;;6.36;77.63
11212;BME280;5663;50.864;12.096;2022-12-07T10:47:26;99042.47;;;6.43;77.67
11212;BME280;5663;50.864;12.096;2022-12-07T10:50:22;99034.44;;;6.49;77.53
11212;BME280;5663;50.864;12.096;2022-12-07T10:53:20;99027.53;;;6.49;77.41
11212;BME280;5663;50.864;12.096;2022-12-07T10:56:07;99033.50;;;6.51;76.81
11212;BME280;5663;50.864;12.096;2022-12-07T10:58:53;99032.69;;;6.49;77.14
11212;BME280;5663;50.864;12.096;2022-12-07T11:01:29;99024.94;;;6.49;77.34
11212;BME280;5663;50.864;12.096;2022-12-07T11:04:14;99031.50;;;6.58;76.99
11212;BME280;5663;50.864;12.096;2022-12-07T11:06:51;99025.50;;;6.57;77.05
11212;BME280;5663;50.864;12.096;2022-12-07T11:09:40;99029.59;;;6.63;77.18
11212;BME280;5663;50.864;12.096;2022-12-07T11:12:23;99026.09;;;6.64;77.05
11212;BME280;5663;50.864;12.096;2022-12-07T11:14:58;99018.34;;;6.64;76.96
11212;BME280;5663;50.864;12.096;2022-12-07T11:17:36;99031.25;;;6.64;76.47
11212;BME280;5663;50.864;12.096;2022-12-07T11:20:18;99017.88;;;6.54;77.11
11212;BME280;5663;50.864;12.096;2022-12-07T11:22:57;99025.13;;;6.66;76.38
11212;BME280;5663;50.864;12.096;2022-12-07T11:25:32;99021.69;;;6.66;76.42
11212;BME280;5663;50.864;12.096;2022-12-07T11:28:21;99022.59;;;6.65;76.38
11212;BME280;5663;50.864;12.096;2022-12-07T11:30:56;99014.84;;;6.65;76.46
11212;BME280;5663;50.864;12.096;2022-12-07T11:33:32;99020.66;;;6.70;76.04
11212;BME280;5663;50.864;12.096;2022-12-07T11:36:11;99007.56;;;6.75;76.42
11212;BME280;5663;50.864;12.096;2022-12-07T11:38:45;99015.97;;;6.80;76.15
11212;BME280;5663;50.864;12.096;2022-12-07T11:41:20;99006.34;;;6.83;75.86
11212;BME280;5663;50.864;12.096;2022-12-07T11:43:55;99011.25;;;6.89;75.79
11212;BME280;5663;50.864;12.096;2022-12-07T11:46:25;99003.28;;;6.94;75.36
11212;BME280;5663;50.864;12.096;2022-12-07T11:49:02;98999.63;;;7.00;75.91
11212;BME280;5663;50.864;12.096;2022-12-07T11:51:35;98941.34;;;6.72;75.33
11212;BME280;5663;50.864;12.096;2022-12-07T11:54:12;98993.03;;;7.13;74.86
11212;BME280;5663;50.864;12.096;2022-12-07T11:56:42;98997.66;;;7.25;75.32
11212;BME280;5663;50.864;12.096;2022-12-07T11:59:15;98995.75;;;7.30;74.21
11212;BME280;5663;50.864;12.096;2022-12-07T12:01:52;98973.63;;;7.23;74.73
11212;BME280;5663;50.864;12.096;2022-12-07T12:04:34;98987.81;;;7.33;74.28
11212;BME280;5663;50.864;12.096;2022-12-07T12:07:15;98966.19;;;7.15;74.08
11212;BME280;5663;50.864;12.096;2022-12-07T12:09:49;98996.63;;;7.29;73.66
11212;BME280;5663;50.864;12.096;2022-12-07T12:15:37;98983.84;;;7.26;73.86
11212;BME280;5663;50.864;12.096;2022-12-07T12:18:44;98967.53;;;7.24;73.52
11212;BME280;5663;50.864;12.096;2022-12-07T12:21:22;98977.63;;;7.30;73.33
11212;BME280;5663;50.864;12.096;2022-12-07T12:23:58;98966.38;;;7.31;73.19
11212;BME280;5663;50.864;12.096;2022-12-07T12:26:29;98967.34;;;7.29;73.45
11212;BME280;5663;50.864;12.096;2022-12-07T12:29:00;98973.22;;;7.32;73.25
11212;BME280;5663;50.864;12.096;2022-12-07T12:31:33;98979.19;;;7.34;73.22
11212;BME280;5663;50.864;12.096;2022-12-07T12:34:04;98967.22;;;7.32;73.02
11212;BME280;5663;50.864;12.096;2022-12-07T12:36:55;98931.75;;;7.15;72.60
11212;BME280;5663;50.864;12.096;2022-12-07T12:39:22;98965.94;;;7.40;72.76
11212;BME280;5663;50.864;12.096;2022-12-07T12:41:59;98965.81;;;7.44;72.81
11212;BME280;5663;50.864;12.096;2022-12-07T12:48:02;98961.00;;;7.55;71.82
11212;BME280;5663;50.864;12.096;2022-12-07T12:50:32;98954.00;;;7.57;72.36
11212;BME280;5663;50.864;12.096;2022-12-07T12:53:33;98963.19;;;7.64;72.34
11212;BME280;5663;50.864;12.096;2022-12-07T12:56:28;98957.16;;;7.63;72.38
11212;BME280;5663;50.864;12.096;2022-12-07T12:59:32;98954.50;;;7.65;71.99
11212;BME280;5663;50.864;12.096;2022-12-07T13:02:19;98963.31;;;7.61;72.03
11212;BME280;5663;50.864;12.096;2022-12-07T13:04:52;98959.19;;;7.57;72.47
11212;BME280;5663;50.864;12.096;2022-12-07T13:10:52;98950.38;;;7.61;72.03
11212;BME280;5663;50.864;12.096;2022-12-07T13:13:31;98952.97;;;7.61;72.23
11212;BME280;5663;50.864;12.096;2022-12-07T13:16:37;98951.16;;;7.63;72.06
11212;BME280;5663;50.864;12.096;2022-12-07T13:22:43;98953.16;;;7.56;72.19
11212;BME280;5663;50.864;12.096;2022-12-07T13:25:17;98954.91;;;7.56;71.90
11212;BME280;5663;50.864;12.096;2022-12-07T13:27:54;98945.53;;;7.53;71.63
11212;BME280;5663;50.864;12.096;2022-12-07T13:30:24;98954.34;;;7.49;71.29
11212;BME280;5663;50.864;12.096;2022-12-07T13:32:52;98948.63;;;7.43;71.45
11212;BME280;5663;50.864;12.096;2022-12-07T13:35:32;98945.38;;;7.37;70.75
11212;BME280;5663;50.864;12.096;2022-12-07T13:38:02;98946.53;;;7.32;71.01
11212;BME280;5663;50.864;12.096;2022-12-07T13:40:32;98947.69;;;7.25;70.56
11212;BME280;5663;50.864;12.096;2022-12-07T13:43:14;98915.41;;;6.94;70.88
11212;BME280;5663;50.864;12.096;2022-12-07T13:45:43;98955.03;;;7.15;70.50
11212;BME280;5663;50.864;12.096;2022-12-07T13:48:24;98956.06;;;7.11;70.92
11212;BME280;5663;50.864;12.096;2022-12-07T13:50:56;98956.13;;;7.09;71.30